• Join FlightAware (Why Join?)
  • Login
  • US Flag 
12:34AM EDT


 

Airport Tracker/Info


-or-


 

Live Flight TrackerFlight Track Log ✈ DAL1716 ✈ 17-May-2013 ✈ KDEN - KATL

Flight Track Log - Related Links

Times and Time Zones

All times are in EDT time to prevent confusion due to time zone crossing. See the DAL1716 flight status page for this flight to view local times or setup timezone preferences in your user account.

Time Position Orientation Groundspeed Altitude Reporting Facility
EDT Latitude Longitude Course Direction KTS MPH feet Rate Location/Type
10:15AM 39.7833 -104.6167 107° East 211 243 8,000  Level Denver TRACON
10:17AM 39.7159 -104.2307 113° Southeast  Level FlightAware Approximate
10:17AM 39.7139 -104.5556 146° Southeast 262 302 10,100  Level Denver Center
10:18AM 39.6735 -104.0839 105° East  Level FlightAware Approximate
10:18AM 39.6650 -104.4603 124° Southeast 311 358 12,200  Level Denver Center
10:19AM 39.6294 -103.9380 113° Southeast  Level FlightAware Approximate
10:19AM 39.6636 -104.3439 91° East 324 373 12,600  Level Denver Center
10:20AM 39.5855 -103.7919 108° East  Level FlightAware Approximate
10:20AM 39.6639 -104.2286 90° East 321 369 15,300  Level Denver Center
10:21AM 39.5428 -103.6464 107° East  Level FlightAware Approximate
10:21AM 39.6522 -104.1050 97° East 329 379 17,700  Level Denver Center
10:22AM 39.5850 -104.0069 132° Southeast 366 421 19,000 1,440 Climbing Denver Center
10:23AM 39.5425 -103.8719 112° Southeast 408 470 20,700 1,500 Climbing Denver Center
10:24AM 39.5094 -103.7189 106° East 427 491 22,100 1,740 Climbing Denver Center
10:25AM 39.4689 -103.5419 106° East 453 521 24,300 1,860 Climbing Denver Center
10:26AM 39.4336 -103.3844 106° East 469 540 26,000 1,500 Climbing Denver Center
10:27AM 39.3972 -103.2258 106° East 480 552 27,500 1,560 Climbing Denver Center
10:28AM 39.3533 -103.0358 107° East 490 564 29,300 1,800 Climbing Denver Center
10:29AM 39.3169 -102.8758 106° East 486 559 31,200 1,740 Climbing Denver Center
10:30AM 39.2742 -102.6928 107° East 484 557 32,900 1,500 Climbing Denver Center
10:31AM 39.2375 -102.5353 107° East 480 552 34,400 1,440 Climbing Denver Center
10:32AM 39.1942 -102.3531 107° East 476 548 35,900 1,200 Climbing Denver Center
10:33AM 39.1564 -102.1978 107° East 475 547 36,900 480 Climbing Denver Center
10:34AM 39.1128 -102.0178 107° East 471 542 37,000  Climbing Denver Center
10:35AM 39.0681 -101.8683 111° Southeast 468 539 37,000  Level Denver Center
10:36AM 39.0106 -101.6914 113° Southeast 479 551 37,000  Level Denver Center
10:37AM 38.9617 -101.5392 112° Southeast 480 552 37,000  Level Denver Center
10:38AM 38.9117 -101.3867 113° Southeast 482 555 37,000  Level Denver Center
10:39AM 38.8542 -101.2094 113° Southeast 482 555 37,000  Level Denver Center
10:40AM 38.8050 -101.0569 112° Southeast 481 554 37,000  Level Denver Center
10:41AM 38.7472 -100.8800 113° Southeast 482 555 37,000  Level Denver Center
10:42AM 38.6975 -100.7294 113° Southeast 480 552 37,000  Level Denver Center
10:43AM 38.6389 -100.5542 113° Southeast 479 551 37,000  Level Denver Center
10:44AM 38.5886 -100.4047 113° Southeast 477 549 37,000  Level Denver Center
10:45AM 38.5286 -100.2303 114° Southeast 478 550 37,000  Level Denver Center
10:46AM 38.4794 -100.0808 113° Southeast 476 548 37,000  Level Denver Center
10:47AM 38.4203 -99.9072 113° Southeast 477 549 37,000  Level Denver Center
10:48AM 38.3853 -99.8064 114° Southeast 477 549 37,000  Level Kansas City Center
10:49AM 38.3328 -99.6575 114° Southeast 479 551 37,000  Level Kansas City Center
10:50AM 38.2747 -99.4892 114° Southeast 478 550 37,000  Level Kansas City Center
10:51AM 38.2222 -99.3350 113° Southeast 477 549 37,000  Level Kansas City Center
10:52AM 38.1681 -99.1806 114° Southeast 479 551 37,000  Level Kansas City Center
10:53AM 38.1153 -99.0272 114° Southeast 475 547 37,000  Level Kansas City Center
10:54AM 38.0600 -98.8706 114° Southeast 473 544 37,000  Level Kansas City Center
10:55AM 37.9956 -98.6914 114° Southeast 476 548 37,000  Level Kansas City Center
10:56AM 37.9419 -98.5394 114° Southeast 475 547 37,000  Level Kansas City Center
10:57AM 37.8886 -98.3856 114° Southeast 479 551 37,000  Level Kansas City Center
10:59AM 37.8331 -98.2344 115° Southeast 479 551 37,000  Level Kansas City Center
11:00AM 37.7728 -98.0686 115° Southeast 480 552 37,000  Level Kansas City Center
11:01AM 37.7158 -97.9150 115° Southeast 481 554 37,000  Level Kansas City Center
11:02AM 37.6594 -97.7603 115° Southeast 482 555 37,000  Level Kansas City Center
11:03AM 37.6017 -97.6006 115° Southeast 477 549 37,000  Level Kansas City Center
11:04AM 37.5464 -97.4506 115° Southeast 474 545 37,000  Level Kansas City Center
11:05AM 37.4906 -97.2983 115° Southeast 479 551 37,000  Level Kansas City Center
11:06AM 37.4236 -97.1189 115° Southeast 474 545 37,000  Level Kansas City Center
11:07AM 37.3675 -96.9678 115° Southeast 475 547 37,000  Level Kansas City Center
11:08AM 37.3089 -96.8203 117° Southeast 475 547 37,000  Level Kansas City Center
11:09AM 37.2308 -96.6869 126° Southeast 477 549 37,000  Level Kansas City Center
11:10AM 37.1528 -96.5544 126° Southeast 475 547 37,000  Level Kansas City Center
11:11AM 37.0717 -96.4133 126° Southeast 473 544 37,000  Level Kansas City Center
11:12AM 36.9956 -96.2803 126° Southeast 471 542 37,000  Level Kansas City Center
11:13AM 36.9203 -96.1464 125° Southeast 470 541 37,000  Level Kansas City Center
11:14AM 36.8378 -95.9814 122° Southeast 466 536 37,000  Level Kansas City Center
11:15AM 36.7875 -95.8297 112° Southeast 470 541 37,000  Level Kansas City Center
11:16AM 36.7447 -95.6711 109° East 476 548 37,000  Level Kansas City Center
11:17AM 36.7028 -95.5144 108° East 474 545 37,000  Level Kansas City Center
11:18AM 36.6589 -95.3567 109° East 474 545 37,000  Level Kansas City Center
11:19AM 36.6150 -95.1986 109° East 475 547 37,000  Level Kansas City Center
11:20AM 36.5711 -95.0431 109° East 473 544 37,000  Level Kansas City Center
11:21AM 36.5261 -94.8858 110° East 476 548 37,000  Level Kansas City Center
11:22AM 36.4825 -94.7319 109° East 472 543 37,000  Level Kansas City Center
11:23AM 36.4283 -94.5483 110° East 471 542 37,000  Level Kansas City Center
11:24AM 36.3850 -94.3961 109° East 468 539 37,000  Level Kansas City Center
11:25AM 36.3414 -94.2436 110° East 468 539 37,000  Level Kansas City Center
11:26AM 36.2997 -94.0992 110° East 470 541 37,000  Level Kansas City Center
11:27AM 36.2550 -93.9467 110° East 472 543 37,000  Level Kansas City Center
11:29AM 36.2025 -93.7636 110° East 472 543 37,000  Level Kansas City Center
11:30AM 36.1581 -93.6108 110° East 472 543 37,000  Level Kansas City Center
11:31AM 36.1128 -93.4581 110° East 472 543 37,000  Level Kansas City Center
11:32AM 36.0678 -93.3058 110° East 471 542 37,000  Level Kansas City Center
11:33AM 36.0231 -93.1492 109° East 474 545 37,000  Level Memphis Center
11:34AM 35.9764 -92.9989 111° Southeast 474 545 37,000  Level Memphis Center
11:35AM 35.9294 -92.8461 111° Southeast 474 545 37,000  Level Memphis Center
11:36AM 35.8844 -92.6936 110° East 474 545 37,000  Level Memphis Center
11:37AM 35.8392 -92.5464 111° Southeast 474 545 37,000  Level Memphis Center
11:38AM 35.7939 -92.3942 110° East 474 545 37,000  Level Memphis Center
11:39AM 35.7461 -92.2472 112° Southeast 468 539 37,000  Level Memphis Center
11:40AM 35.7003 -92.0981 111° Southeast 468 539 37,000  Level Memphis Center
11:41AM 35.6544 -91.9489 111° Southeast 468 539 37,000 300 Level Memphis Center
11:42AM 35.6061 -91.7997 112° Southeast 468 539 37,700 720 Climbing Memphis Center
11:43AM 35.5619 -91.6483 110° East 468 539 38,500 600 Climbing Memphis Center
11:44AM 35.5111 -91.4997 113° Southeast 468 539 39,000 240 Climbing Memphis Center
11:45AM 35.4644 -91.3539 111° Southeast 462 532 39,000  Level Memphis Center
11:46AM 35.4156 -91.1875 110° East 467 537 39,000  Level Memphis Center
11:47AM 35.3664 -91.0547 114° Southeast 472 543 39,000  Level Memphis Center
11:48AM 35.3211 -90.9017 110° East 472 543 39,000  Level Memphis Center
11:49AM 35.2739 -90.7539 111° Southeast 472 543 39,000  Level Memphis Center
11:50AM 35.2219 -90.6011 113° Southeast 472 543 39,000  Level Memphis Center
11:51AM 35.1700 -90.4383 111° Southeast 467 537 39,000  Level Memphis Center
11:52AM 35.1219 -90.2911 112° Southeast 473 544 39,000  Level Memphis Center
11:53AM 35.0719 -90.1414 112° Southeast 473 544 39,000  Level Memphis Center
11:54AM 35.0236 -89.9919 112° Southeast 473 544 39,000  Level Memphis Center
11:55AM 35.0042 -89.8322 98° East 468 539 39,000  Level Memphis Center
11:56AM 34.9783 -89.6831 102° East 486 559 39,000  Level Memphis Center
11:57AM 34.9522 -89.5158 101° East 497 572 39,000  Level Memphis Center
11:58AM 34.9261 -89.3592 101° East 484 557 39,000  Level Memphis Center
11:59AM 34.9017 -89.2000 101° East 484 557 39,000  Level Memphis Center
12:00PM 34.8728 -89.0231 101° East 484 557 39,000  Level Memphis Center
12:01PM 34.8503 -88.8617 100° East 484 557 39,000  Level Memphis Center
12:02PM 34.8231 -88.7000 102° East 479 551 39,000  Level Memphis Center
12:03PM 34.7978 -88.5414 101° East 484 557 39,000  Level Memphis Center
12:04PM 34.7769 -88.4078 101° East 472 543 39,000  Level Memphis Center
12:05PM 34.7514 -88.2492 101° East 472 543 39,000  Level Memphis Center
12:06PM 34.7211 -88.0628 101° East 491 565 39,000  Level Memphis Center
12:07PM 34.6950 -87.8969 101° East 491 565 39,000 -600 Level Memphis Center
12:08PM 34.6667 -87.7386 102° East 485 558 37,900 -1,560 Descending Memphis Center
12:09PM 34.6489 -87.5928 98° East 485 558 35,900 -1,680 Descending Memphis Center
12:11PM 34.5908 -87.2761 102° East 487 560 33,000 -1,020 Descending Atlanta Center
12:12PM 34.5556 -87.1008 104° East 487 560 33,000  Level Atlanta Center
12:13PM 34.5261 -86.9383 102° East 487 560 33,000  Level Atlanta Center
12:14PM 34.4922 -86.7783 104° East 487 560 33,000  Level Atlanta Center
12:15PM 34.4558 -86.6233 106° East 487 560 33,000  Level Atlanta Center
12:16PM 34.4194 -86.4636 105° East 487 560 33,000  Level Atlanta Center
12:17PM 34.3850 -86.3067 105° East 487 560 33,000  Level Atlanta Center
12:18PM 34.3481 -86.1472 106° East 487 560 33,000 -420 Level Atlanta Center
12:19PM 34.3111 -85.9878 106° East 487 560 32,200 -2,100 Descending Atlanta Center
12:20PM 34.2781 -85.8261 104° East 487 560 28,900 -3,240 Descending Atlanta Center
12:21PM 34.2406 -85.6772 107° East 477 549 25,800 -2,940 Descending Atlanta Center
12:22PM 34.2047 -85.5233 106° East 477 549 23,100 -2,700 Descending Atlanta Center
12:23PM 34.1711 -85.3794 106° East 456 525 20,400 -2,460 Descending Atlanta Center
12:24PM 34.1431 -85.2536 105° East 449 517 18,200 -2,400 Descending Atlanta Center
12:25PM 34.1089 -85.1150 107° East 430 495 15,700 -2,280 Descending Atlanta Center
12:26PM 34.0683 -84.9867 111° Southeast 415 478 13,700 -1,800 Descending Atlanta Center
12:27PM 33.9875 -84.8981 138° Southeast 393 452 12,100 -1,380 Descending Atlanta Center
12:28PM 33.9150 -84.8047 133° Southeast 383 441 11,000 -600 Descending Atlanta Center
12:29PM 33.8425 -84.7117 133° Southeast 383 441 11,000  Level Atlanta Center
12:29PM 33.8000 -84.6667 139° Southeast 378 435 11,000  Level Atlanta TRACON
12:30PM 33.7500 -84.5833 126° Southeast 340 391 11,000 -360 Level Atlanta TRACON
12:31PM 33.7333 -84.4833 101° East 282 325 10,400 -1,200 Descending Atlanta TRACON
12:32PM 33.7333 -84.3833 90° East 263 303 8,500 -1,740 Descending Atlanta TRACON
12:33PM 33.7333 -84.3167 90° East 238 274 7,000 -1,440 Descending Atlanta TRACON
12:34PM 33.7333 -84.2333 90° East 232 267 5,800 -960 Descending Atlanta TRACON
12:35PM 33.7333 -84.1667 90° East 204 235 5,100 -900 Descending Atlanta TRACON
12:36PM 33.6833 -84.1500 164° South 189 217 4,100 -600 Descending Atlanta TRACON
12:37PM 33.6667 -84.2000 248° West 175 201 4,000 -300 Descending Atlanta TRACON
12:38PM 33.6500 -84.2500 248° West 184 212 3,500 -540 Descending Atlanta TRACON